Time;durP1;ratioP1;P1;durP2;ratioP2;P2;SDS_P1;SDS_P2;PMS_P1;PMS_P2;Temp;Humidity;BMP_temperature;BMP_pressure;BME280_temperature;BME280_humidity;BME280_pressure;Samples;Min_cycle;Max_cycle;Signal;HPM_P1;HPM_P2
2024/02/20 00:00:13;;;;;;;;;8.50;7.00;;;;;-143.90;100.00;76160.56;4966882;28;108104;-69
2024/02/20 00:02:42;;;;;;;;;4.25;3.75;;;;;-143.90;100.00;76162.63;4960771;28;101495;-69
2024/02/20 00:05:09;;;;;;;;;8.25;6.50;;;;;-143.90;100.00;76160.56;4965964;28;101817;-69
2024/02/20 00:07:37;;;;;;;;;8.00;8.00;;;;;-143.90;100.00;76172.97;4965741;28;102024;-69
2024/02/20 00:10:07;;;;;;;;;7.75;7.00;;;;;-143.90;100.00;76164.69;4965093;28;103685;-69
2024/02/20 00:12:37;;;;;;;;;7.75;7.00;;;;;-143.90;100.00;76168.81;4955496;28;102305;-70
2024/02/20 00:15:07;;;;;;;;;7.75;6.50;;;;;-143.90;100.00;76162.63;4961354;28;101511;-69
2024/02/20 00:17:35;;;;;;;;;8.00;6.00;;;;;-143.90;100.00;76166.75;4961634;28;101835;-69
2024/02/20 00:20:05;;;;;;;;;8.00;7.50;;;;;-143.90;100.00;76181.25;4961963;28;103492;-70
2024/02/20 00:22:33;;;;;;;;;7.75;6.50;;;;;-143.90;100.00;76179.16;4954711;28;106111;-70
2024/02/20 00:25:00;;;;;;;;;6.00;6.00;;;;;-143.90;100.00;76177.09;4963549;28;101548;-69
2024/02/20 00:27:26;;;;;;;;;6.25;6.25;;;;;-143.90;100.00;76181.25;4963360;28;101515;-70
2024/02/20 00:29:53;;;;;;;;;7.00;6.75;;;;;-143.90;100.00;76179.16;4963767;28;103345;-70
2024/02/20 00:32:21;;;;;;;;;9.00;6.75;;;;;-143.90;100.00;76177.09;4962084;28;101544;-70
2024/02/20 00:34:48;;;;;;;;;3.50;3.50;;;;;-143.90;100.00;76181.25;4945176;28;101656;-70
2024/02/20 00:37:15;;;;;;;;;7.00;7.00;;;;;-143.90;100.00;76181.25;4964468;28;102138;-70
2024/02/20 00:39:42;;;;;;;;;5.75;5.00;;;;;-143.90;100.00;76185.38;4966374;28;103353;-70
2024/02/20 00:42:09;;;;;;;;;8.50;7.75;;;;;-143.90;100.00;76189.50;4964788;28;102137;-70
2024/02/20 00:44:35;;;;;;;;;9.75;6.00;;;;;-143.90;100.00;76191.56;4959001;28;101724;-70
2024/02/20 00:47:03;;;;;;;;;6.75;5.75;;;;;-143.90;100.00;76195.72;4965855;28;101495;-70
2024/02/20 00:49:29;;;;;;;;;6.75;5.50;;;;;-143.90;100.00;76193.66;4979298;28;103520;-70
2024/02/20 00:51:56;;;;;;;;;6.00;5.00;;;;;-143.90;100.00;76189.50;4964891;28;102110;-70
2024/02/20 00:54:23;;;;;;;;;4.75;2.00;;;;;-143.90;100.00;76193.66;4958907;28;101700;-70
2024/02/20 00:56:49;;;;;;;;;3.00;3.00;;;;;-143.90;100.00;76189.50;4965577;28;101632;-70
2024/02/20 00:59:16;;;;;;;;;0.75;0.75;;;;;-143.90;100.00;76193.66;4964115;28;103658;-70
2024/02/20 01:01:43;;;;;;;;;1.75;1.75;;;;;-143.90;100.00;76187.44;4965117;28;101528;-69
2024/02/20 01:04:11;;;;;;;;;1.50;1.50;;;;;-143.90;100.00;76177.09;4967033;28;102906;-70
2024/02/20 01:06:38;;;;;;;;;3.00;3.00;;;;;-143.90;100.00;76189.50;4955492;28;102008;-70
2024/02/20 01:09:05;;;;;;;;;3.00;2.00;;;;;-143.90;100.00;76181.25;4964404;28;104472;-70
2024/02/20 01:11:32;;;;;;;;;2.00;2.00;;;;;-143.90;100.00;76164.69;4965908;28;101756;-70
2024/02/20 01:14:00;;;;;;;;;3.00;3.00;;;;;-143.90;100.00;76166.75;4976287;28;103354;-70
2024/02/20 01:16:28;;;;;;;;;2.75;2.50;;;;;-143.90;100.00;76177.09;4959890;28;101538;-69
2024/02/20 01:18:55;;;;;;;;;4.25;3.00;;;;;-143.90;100.00;76164.69;4965129;28;103340;-69
2024/02/20 01:21:21;;;;;;;;;1.00;1.00;;;;;-143.90;100.00;76164.69;4978841;28;101877;-70
2024/02/20 01:23:48;;;;;;;;;2.25;2.00;;;;;-143.90;100.00;76154.34;4964744;28;102010;-70
2024/02/20 01:26:18;;;;;;;;;4.00;2.00;;;;;-143.90;100.00;76162.63;4965818;28;101976;-69
2024/02/20 01:28:44;;;;;;;;;4.25;3.00;;;;;-143.90;100.00;76160.56;4981161;28;107381;-69
2024/02/20 01:31:16;;;;;;;;;2.00;1.75;;;;;-143.90;100.00;76152.28;4968466;28;101613;-70
2024/02/20 01:33:43;;;;;;;;;2.00;2.00;;;;;-143.90;100.00;76152.28;4961789;28;102094;-71
2024/02/20 01:36:09;;;;;;;;;1.00;1.00;;;;;-143.90;100.00;76144.00;4966787;28;101472;-71
2024/02/20 01:38:36;;;;;;;;;5.75;2.75;;;;;-143.90;100.00;76144.00;4956068;28;103555;-71
2024/02/20 01:41:03;;;;;;;;;1.00;0.75;;;;;-143.90;100.00;76144.00;4966190;28;105817;-70
2024/02/20 01:43:29;;;;;;;;;2.00;1.75;;;;;-143.90;100.00;76139.88;4964982;28;101957;-71
2024/02/20 01:45:57;;;;;;;;;2.00;1.25;;;;;-143.90;100.00;76139.88;4966792;28;102150;-71
2024/02/20 01:48:23;;;;;;;;;2.25;1.25;;;;;-143.90;100.00;76135.75;4958661;28;103384;-70
2024/02/20 01:50:51;;;;;;;;;1.50;1.00;;;;;-143.90;100.00;76141.94;4945707;28;101580;-70
2024/02/20 01:53:18;;;;;;;;;0.75;0.75;;;;;-143.90;100.00;76131.59;4952445;28;102097;-70
2024/02/20 01:55:45;;;;;;;;;1.75;0.25;;;;;-143.90;100.00;76125.41;4958356;28;103050;-71
2024/02/20 01:58:12;;;;;;;;;0.00;0.00;;;;;-143.90;100.00;76123.34;4968014;28;103416;-70
2024/02/20 02:00:38;;;;;;;;;1.00;0.00;;;;;-143.90;100.00;76125.41;4953464;28;101527;-71
2024/02/20 02:03:05;;;;;;;;;0.00;0.00;;;;;-143.90;100.00;76119.19;4889972;28;101852;-71
2024/02/20 02:05:32;;;;;;;;;1.50;1.00;;;;;-143.90;100.00;76119.19;4960867;28;101738;-71
2024/02/20 02:07:59;;;;;;;;;0.00;0.00;;;;;-143.90;100.00;76117.13;4961884;28;103510;-71
2024/02/20 02:10:26;;;;;;;;;1.00;0.00;;;;;-143.90;100.00;76113.00;4954039;28;102698;-70
2024/02/20 02:12:53;;;;;;;;;0.00;0.00;;;;;-143.90;100.00;76110.94;4950056;28;101821;-69
2024/02/20 02:15:19;;;;;;;;;1.00;1.00;;;;;-143.90;100.00;76119.19;4945271;28;102277;-69
2024/02/20 02:17:46;;;;;;;;;1.00;1.00;;;;;-143.90;100.00;76117.13;4964758;28;103586;-69
2024/02/20 02:20:13;;;;;;;;;1.00;1.00;;;;;-143.90;100.00;76115.06;4958304;28;101660;-70
2024/02/20 02:22:39;;;;;;;;;2.00;1.00;;;;;-143.90;100.00;76113.00;4967222;28;105822;-71
2024/02/20 02:25:07;;;;;;;;;2.00;2.00;;;;;-143.90;100.00;76123.34;4946951;28;102117;-70
2024/02/20 02:27:36;;;;;;;;;1.00;1.00;;;;;-143.90;100.00;76119.19;4964209;28;103344;-70
2024/02/20 02:30:05;;;;;;;;;1.75;1.75;;;;;-143.90;100.00;76129.53;4963145;28;101466;-71
2024/02/20 02:32:32;;;;;;;;;4.50;4.00;;;;;-143.90;100.00;76135.75;4965149;28;101525;-71
2024/02/20 02:34:59;;;;;;;;;5.50;4.25;;;;;-143.90;100.00;76139.88;4962783;27;101808;-70
2024/02/20 02:37:26;;;;;;;;;5.25;3.00;;;;;-143.90;100.00;76137.81;4963926;28;103333;-71
2024/02/20 02:39:53;;;;;;;;;7.75;7.00;;;;;-143.90;100.00;76139.88;4964626;28;101722;-71
2024/02/20 02:42:20;;;;;;;;;4.50;3.50;;;;;-143.90;100.00;76146.09;4942097;28;102136;-70
2024/02/20 02:44:46;;;;;;;;;5.75;5.75;;;;;-143.90;100.00;76146.09;4979929;28;102873;-70
2024/02/20 02:47:13;;;;;;;;;8.25;7.75;;;;;-143.90;100.00;76148.16;4961774;28;103549;-71
2024/02/20 02:49:40;;;;;;;;;10.75;9.75;;;;;-143.90;100.00;76160.56;4950514;28;101835;-70
2024/02/20 02:52:06;;;;;;;;;5.25;4.25;;;;;-143.90;100.00;76162.63;4964961;28;104718;-70
2024/02/20 02:54:33;;;;;;;;;7.00;6.00;;;;;-143.90;100.00;76158.50;4957758;28;101556;-71
2024/02/20 02:56:59;;;;;;;;;6.50;6.00;;;;;-143.90;100.00;76160.56;4937823;28;103344;-71
2024/02/20 02:59:26;;;;;;;;;5.50;5.00;;;;;-143.90;100.00;76158.50;4964508;28;101891;-70
2024/02/20 03:01:53;;;;;;;;;5.25;5.25;;;;;-143.90;100.00;76168.81;4945444;28;101715;-70
2024/02/20 03:04:19;;;;;;;;;6.50;5.75;;;;;-143.90;100.00;76175.03;4941890;28;101812;-70
2024/02/20 03:06:47;;;;;;;;;6.00;5.25;;;;;-143.90;100.00;76172.97;4951467;28;103437;-70
2024/02/20 03:09:15;;;;;;;;;7.00;7.00;;;;;-143.90;100.00;76179.16;4956404;28;101777;-69
2024/02/20 03:11:42;;;;;;;;;6.50;4.25;;;;;-143.90;100.00;76164.69;4967060;28;102035;-70
2024/02/20 03:14:13;;;;;;;;;5.50;3.00;;;;;-143.90;100.00;76175.03;4963342;27;102004;-70
2024/02/20 03:16:40;;;;;;;;;4.00;3.75;;;;;-143.90;100.00;76168.81;4951302;28;108035;-70
2024/02/20 03:19:07;;;;;;;;;4.25;4.00;;;;;-143.90;100.00;76164.69;4935128;28;101728;-70
2024/02/20 03:21:36;;;;;;;;;3.75;3.00;;;;;-143.90;100.00;76164.69;4953783;28;101598;-70
2024/02/20 03:24:06;;;;;;;;;5.50;4.25;;;;;-143.90;100.00;76164.69;4969089;28;102814;-70
2024/02/20 03:26:33;;;;;;;;;7.25;4.25;;;;;-143.90;100.00;76156.41;4929479;28;103526;-71
2024/02/20 03:29:00;;;;;;;;;3.50;3.00;;;;;-143.90;100.00;76152.28;4940011;28;104830;-70
2024/02/20 03:31:26;;;;;;;;;1.00;1.00;;;;;-143.90;100.00;76148.16;4956815;28;101515;-71
2024/02/20 03:33:53;;;;;;;;;5.00;3.00;;;;;-143.90;100.00;76146.09;4964650;28;101554;-70
2024/02/20 03:36:20;;;;;;;;;6.00;4.50;;;;;-143.90;100.00;76152.28;4969214;28;106593;-69
2024/02/20 03:38:47;;;;;;;;;7.00;6.00;;;;;-143.90;100.00;76148.16;4951566;28;102486;-71
2024/02/20 03:41:13;;;;;;;;;4.25;3.25;;;;;-143.90;100.00;76141.94;4956198;28;101558;-71
2024/02/20 03:43:40;;;;;;;;;8.00;8.00;;;;;-143.90;100.00;76141.94;4965516;28;101489;-71
2024/02/20 03:46:08;;;;;;;;;9.25;7.00;;;;;-143.90;100.00;76141.94;4955967;28;103385;-70
2024/02/20 03:48:35;;;;;;;;;6.50;4.50;;;;;-143.90;100.00;76146.09;4963320;28;102133;-70
2024/02/20 03:51:02;;;;;;;;;5.75;4.25;;;;;-143.90;100.00;76148.16;4928689;28;102105;-71
2024/02/20 03:53:30;;;;;;;;;3.50;3.50;;;;;-143.90;100.00;76152.28;4946849;28;101796;-70
2024/02/20 03:55:57;;;;;;;;;7.50;6.50;;;;;-143.90;100.00;76154.34;4935381;28;103519;-71
2024/02/20 03:58:23;;;;;;;;;7.00;6.25;;;;;-143.90;100.00;76156.41;4932200;28;103240;-70
2024/02/20 04:00:50;;;;;;;;;5.50;4.75;;;;;-143.90;100.00;76158.50;4929699;28;101868;-70
2024/02/20 04:03:17;;;;;;;;;7.25;6.00;;;;;-143.90;100.00;76160.56;4945644;28;101846;-71
2024/02/20 04:05:43;;;;;;;;;6.75;6.75;;;;;-143.90;100.00;76160.56;4929107;28;103467;-69
2024/02/20 04:08:10;;;;;;;;;4.50;4.50;;;;;-143.90;100.00;76164.69;4938737;28;101707;-71
2024/02/20 04:10:37;;;;;;;;;3.00;3.00;;;;;-143.90;100.00;76162.63;4948064;28;101634;-71
2024/02/20 04:13:04;;;;;;;;;6.00;3.25;;;;;-143.90;100.00;76160.56;4940378;28;102138;-70
2024/02/20 04:15:30;;;;;;;;;8.25;6.75;;;;;-143.90;100.00;76162.63;4963418;28;103415;-71
2024/02/20 04:17:57;;;;;;;;;5.00;4.00;;;;;-143.90;100.00;76168.81;4954515;28;101875;-71
2024/02/20 04:20:24;;;;;;;;;8.00;7.00;;;;;-143.90;100.00;76168.81;4963644;28;102126;-71
2024/02/20 04:22:50;;;;;;;;;6.00;6.00;;;;;-143.90;100.00;76172.97;4940755;28;102335;-70
2024/02/20 04:25:17;;;;;;;;;7.75;6.00;;;;;-143.90;100.00;76172.97;4961903;28;103497;-70
2024/02/20 04:27:44;;;;;;;;;7.25;4.00;;;;;-143.90;100.00;76160.56;4948929;28;107450;-70
2024/02/20 04:30:12;;;;;;;;;4.25;4.25;;;;;-143.90;100.00;76164.69;4972353;28;101735;-71
2024/02/20 04:32:38;;;;;;;;;2.75;2.75;;;;;-143.90;100.00;76160.56;4942418;28;101540;-71
2024/02/20 04:35:06;;;;;;;;;2.50;2.50;;;;;-143.90;100.00;76156.41;4917413;28;103320;-71
2024/02/20 04:37:33;;;;;;;;;2.25;2.25;;;;;-143.90;100.00;76162.63;4914595;28;102415;-71
2024/02/20 04:40:00;;;;;;;;;2.50;2.00;;;;;-143.90;100.00;76158.50;4959548;28;102030;-71
2024/02/20 04:42:27;;;;;;;;;3.25;3.25;;;;;-143.90;100.00;76164.69;4954471;28;102073;-71
2024/02/20 04:44:54;;;;;;;;;3.00;3.00;;;;;-143.90;100.00;76152.28;4935291;28;103506;-71
2024/02/20 04:47:21;;;;;;;;;2.50;1.75;;;;;-143.90;100.00;76156.41;4960093;28;101943;-70
2024/02/20 04:49:51;;;;;;;;;3.00;2.00;;;;;-143.90;100.00;76162.63;4958764;28;101587;-71
2024/02/20 04:52:18;;;;;;;;;6.00;5.00;;;;;-143.90;100.00;76164.69;4960016;28;101590;-71
2024/02/20 04:54:44;;;;;;;;;6.00;5.50;;;;;-143.90;100.00;76166.75;4947017;28;103346;-70
2024/02/20 04:57:11;;;;;;;;;5.25;4.50;;;;;-143.90;100.00;76172.97;4959318;28;101413;-70
2024/02/20 04:59:41;;;;;;;;;14.50;10.50;;;;;-143.90;100.00;76168.81;4958721;28;102232;-71
2024/02/20 05:02:11;;;;;;;;;7.00;7.00;;;;;-143.90;100.00;76164.69;4960009;28;101788;-71
2024/02/20 05:04:38;;;;;;;;;8.00;8.00;;;;;-143.90;100.00;76166.75;4960770;28;103664;-71
2024/02/20 05:07:05;;;;;;;;;11.00;7.25;;;;;-143.90;100.00;76160.56;4929938;28;102663;-71
2024/02/20 05:09:32;;;;;;;;;6.50;4.50;;;;;-143.90;100.00;76164.69;4932738;28;101518;-71
2024/02/20 05:11:59;;;;;;;;;7.50;7.00;;;;;-143.90;100.00;76166.75;4946942;28;104400;-71
2024/02/20 05:14:26;;;;;;;;;10.00;6.00;;;;;-143.90;100.00;76162.63;4940379;28;102613;-70
2024/02/20 05:16:53;;;;;;;;;5.00;4.25;;;;;-143.90;100.00;76168.81;4952790;28;102098;-70
2024/02/20 05:19:19;;;;;;;;;6.25;6.25;;;;;-143.90;100.00;76166.75;4953276;28;103608;-71
2024/02/20 05:21:46;;;;;;;;;6.75;6.75;;;;;-143.90;100.00;76172.97;4951213;28;101997;-70
2024/02/20 05:24:12;;;;;;;;;8.00;7.00;;;;;-143.90;100.00;76172.97;4935280;28;103607;-71
2024/02/20 05:26:41;;;;;;;;;6.25;5.75;;;;;-143.90;100.00;76172.97;4947209;28;101868;-71
2024/02/20 05:29:08;;;;;;;;;7.75;7.25;;;;;-143.90;100.00;76168.81;4932384;28;102537;-71
2024/02/20 05:31:34;;;;;;;;;9.00;8.50;;;;;-143.90;100.00;76172.97;4965050;28;103474;-71
2024/02/20 05:34:02;;;;;;;;;12.00;9.00;;;;;-143.90;100.00;76172.97;4955061;28;103333;-70
2024/02/20 05:36:31;;;;;;;;;9.50;8.00;;;;;-143.90;100.00;76172.97;4944177;28;101523;-70
2024/02/20 05:39:01;;;;;;;;;14.75;9.75;;;;;-143.90;100.00;76175.03;4930526;28;102310;-71
2024/02/20 05:41:29;;;;;;;;;17.25;16.00;;;;;-143.90;100.00;76175.03;4979846;28;101879;-71
2024/02/20 05:43:58;;;;;;;;;22.00;20.25;;;;;-143.90;100.00;76172.97;4943374;28;103443;-71
2024/02/20 05:46:30;;;;;;;;;18.75;13.00;;;;;-143.90;100.00;76164.69;4945590;28;103107;-70
2024/02/20 05:48:57;;;;;;;;;9.50;8.00;;;;;-143.90;100.00;76172.97;4907018;28;101806;-70
2024/02/20 05:51:27;;;;;;;;;13.25;7.25;;;;;-143.90;100.00;76172.97;4946119;28;102075;-70
2024/02/20 05:53:54;;;;;;;;;14.50;13.00;;;;;-143.90;100.00;76181.25;4943194;28;103494;-70
2024/02/20 05:56:20;;;;;;;;;13.25;12.50;;;;;-143.90;100.00;76183.31;4956181;28;104176;-69
2024/02/20 05:58:47;;;;;;;;;19.00;17.00;;;;;-143.90;100.00;76191.56;4954311;28;101823;-72
2024/02/20 06:01:15;;;;;;;;;20.75;18.00;;;;;-143.90;100.00;76193.66;4952807;28;102863;-71
2024/02/20 06:03:43;;;;;;;;;19.25;19.00;;;;;-143.90;100.00;76197.78;4961818;28;103646;-70
2024/02/20 06:06:11;;;;;;;;;22.50;20.00;;;;;-143.90;100.00;76214.31;4955095;27;102523;-71
2024/02/20 06:08:41;;;;;;;;;22.00;18.00;;;;;-143.90;100.00;76214.31;4961415;28;102104;-70
2024/02/20 06:11:17;;;;;;;;;25.25;22.00;;;;;-143.90;100.00;76218.47;4954409;28;102849;-71
2024/02/20 06:13:45;;;;;;;;;17.75;11.75;;;;;-143.90;100.00;76214.31;4958956;28;103341;-70
2024/02/20 06:16:12;;;;;;;;;22.00;20.25;;;;;-143.90;100.00;76218.47;4964801;28;101681;-72
2024/02/20 06:18:39;;;;;;;;;25.25;21.00;;;;;-143.90;100.00;76210.19;4964982;28;101850;-73
2024/02/20 06:21:11;;;;;;;;;18.50;16.75;;;;;-143.90;100.00;76199.84;4959503;28;102068;-72
2024/02/20 06:23:43;;;;;;;;;18.00;18.00;;;;;-143.90;100.00;76195.72;4966745;27;103526;-72
2024/02/20 06:26:11;;;;;;;;;16.25;16.25;;;;;-143.90;100.00;76195.72;4960213;28;102499;-72
2024/02/20 06:28:41;;;;;;;;;17.75;15.50;;;;;-143.90;100.00;76189.50;4966949;28;101703;-72
2024/02/20 06:31:08;;;;;;;;;25.50;20.50;;;;;-143.90;100.00;76185.38;4962497;28;101548;-72
2024/02/20 06:33:35;;;;;;;;;21.00;18.75;;;;;-143.90;100.00;76181.25;4964583;28;104954;-72
2024/02/20 06:36:03;;;;;;;;;22.50;20.00;;;;;-143.90;100.00;76181.25;4967976;28;101800;-73
2024/02/20 06:38:31;;;;;;;;;20.75;18.50;;;;;-143.90;100.00;76189.50;4966533;28;101706;-73
2024/02/20 06:41:01;;;;;;;;;17.25;16.75;;;;;-143.90;100.00;76175.03;4960910;28;101460;-72
2024/02/20 06:43:28;;;;;;;;;22.50;19.50;;;;;-143.90;100.00;76181.25;4967186;28;103524;-72
2024/02/20 06:45:55;;;;;;;;;25.25;20.50;;;;;-143.90;100.00;76175.03;4966877;28;101785;-71
2024/02/20 06:48:22;;;;;;;;;20.50;18.50;;;;;-143.90;100.00;76179.16;4964866;28;102309;-71
2024/02/20 06:50:49;;;;;;;;;18.50;15.50;;;;;-143.90;100.00;76175.03;4968035;28;106174;-71
2024/02/20 06:53:16;;;;;;;;;18.00;16.50;;;;;-143.90;100.00;76177.09;4963649;28;103549;-72
2024/02/20 06:55:42;;;;;;;;;17.75;16.50;;;;;-143.90;100.00;76168.81;4963992;28;102104;-71
2024/02/20 06:58:09;;;;;;;;;12.00;10.50;;;;;-143.90;100.00;76177.09;4965164;28;101879;-71
2024/02/20 07:00:39;;;;;;;;;13.75;13.50;;;;;-143.90;100.00;76172.97;4946752;28;101899;-71
2024/02/20 07:03:06;;;;;;;;;20.00;17.00;;;;;-143.90;100.00;76177.09;4958674;28;103491;-71
2024/02/20 07:05:33;;;;;;;;;23.75;20.00;;;;;-143.90;100.00;76183.31;4965164;28;102356;-71
2024/02/20 07:08:00;;;;;;;;;16.75;15.00;;;;;-143.90;100.00;76168.81;4959886;28;102015;-72
2024/02/20 07:10:27;;;;;;;;;17.00;17.00;;;;;-143.90;100.00;76172.97;4965472;28;102007;-71
2024/02/20 07:12:57;;;;;;;;;16.75;16.25;;;;;-143.90;100.00;76164.69;4956365;28;107791;-73
2024/02/20 07:15:24;;;;;;;;;22.00;21.25;;;;;-143.90;100.00;76179.16;4961809;28;102023;-71
2024/02/20 07:17:50;;;;;;;;;25.75;21.00;;;;;-143.90;100.00;76177.09;4949522;28;101628;-71
2024/02/20 07:20:17;;;;;;;;;17.50;13.00;;;;;-143.90;100.00;76166.75;4954894;28;101898;-71
2024/02/20 07:22:44;;;;;;;;;24.75;21.75;;;;;-143.90;100.00;76177.09;4941543;28;103452;-71
2024/02/20 07:25:19;;;;;;;;;16.25;16.00;;;;;-143.90;100.00;76164.69;4946030;28;101858;-71
2024/02/20 07:27:46;;;;;;;;;19.00;18.25;;;;;-143.90;100.00;76158.50;4946177;28;102543;-71
2024/02/20 07:30:14;;;;;;;;;22.50;19.00;;;;;-143.90;100.00;76172.97;4959286;28;101979;-71
2024/02/20 07:32:41;;;;;;;;;27.50;23.00;;;;;-143.90;100.00;76175.03;4947264;28;104834;-71
2024/02/20 07:35:10;;;;;;;;;15.75;13.50;;;;;-143.90;100.00;76160.56;4941160;28;101421;-71
2024/02/20 07:37:38;;;;;;;;;24.25;18.50;;;;;-143.90;100.00;76164.69;4943290;28;101813;-71
2024/02/20 07:40:06;;;;;;;;;21.75;18.50;;;;;-143.90;100.00;76164.69;4946193;28;101766;-71
2024/02/20 07:42:33;;;;;;;;;23.75;20.75;;;;;-143.90;100.00;76164.69;4947246;28;103348;-71
2024/02/20 07:45:00;;;;;;;;;16.00;14.00;;;;;-143.90;100.00;76152.28;4940397;28;105612;-71
2024/02/20 07:47:27;;;;;;;;;21.50;17.50;;;;;-143.90;100.00;76152.28;4945455;28;101680;-71
2024/02/20 07:49:53;;;;;;;;;18.00;15.50;;;;;-143.90;100.00;76152.28;4957632;28;103031;-71
2024/02/20 07:52:20;;;;;;;;;18.00;13.75;;;;;-143.90;100.00;76152.28;4979218;28;108057;-71
2024/02/20 07:54:47;;;;;;;;;21.50;17.25;;;;;-143.90;100.00;76152.28;4963105;28;102086;-72
2024/02/20 07:57:14;;;;;;;;;18.75;17.75;;;;;-143.90;100.00;76150.22;4962401;28;101671;-71
2024/02/20 07:59:40;;;;;;;;;16.25;14.00;;;;;-143.90;100.00;76137.81;4966625;28;102206;-71
2024/02/20 08:02:09;;;;;;;;;18.00;15.50;;;;;-143.90;100.00;76131.59;4965303;28;103341;-72
2024/02/20 08:04:37;;;;;;;;;22.50;20.75;;;;;-143.90;100.00;76156.41;4965406;28;101886;-71
2024/02/20 08:07:04;;;;;;;;;26.00;20.75;;;;;-143.90;100.00;76144.00;4959483;28;102358;-71
2024/02/20 08:09:31;;;;;;;;;25.00;17.50;;;;;-143.90;100.00;76144.00;4978999;28;101910;-71
2024/02/20 08:11:58;;;;;;;;;37.00;27.00;;;;;-143.90;100.00;76139.88;4957866;28;105147;-72
2024/02/20 08:14:25;;;;;;;;;24.75;22.00;;;;;-143.90;100.00;76139.88;4944793;28;101625;-72
2024/02/20 08:16:52;;;;;;;;;17.25;16.50;;;;;-143.90;100.00;76133.69;4940620;28;101699;-71
2024/02/20 08:19:18;;;;;;;;;21.50;17.50;;;;;-143.90;100.00;76131.59;4950735;28;101675;-72
2024/02/20 08:21:45;;;;;;;;;20.50;17.00;;;;;-143.90;100.00;76127.47;4965742;28;103373;-72
2024/02/20 08:24:12;;;;;;;;;23.75;22.00;;;;;-143.90;100.00;76115.06;4960499;28;101561;-72
2024/02/20 08:26:39;;;;;;;;;36.50;26.00;;;;;-143.90;100.00;76110.94;4964269;28;101889;-72
2024/02/20 08:29:08;;;;;;;;;20.00;19.00;;;;;-143.90;100.00;76102.66;4958445;28;102116;-72
2024/02/20 08:31:35;;;;;;;;;30.00;27.75;;;;;-143.90;100.00;76098.53;4965469;28;104866;-72
2024/02/20 08:34:01;;;;;;;;;31.25;26.00;;;;;-143.90;100.00;76110.94;4964189;28;101563;-72
2024/02/20 08:36:30;;;;;;;;;29.25;22.00;;;;;-143.90;100.00;76100.59;4963751;28;101594;-71
2024/02/20 08:38:56;;;;;;;;;24.75;22.00;;;;;-143.90;100.00;76102.66;4959459;28;101839;-72
2024/02/20 08:41:23;;;;;;;;;20.50;19.00;;;;;-143.90;100.00;76092.31;4954430;28;103461;-72
2024/02/20 08:43:51;;;;;;;;;21.00;17.00;;;;;-143.90;100.00;76090.25;4964769;28;101516;-72
2024/02/20 08:46:18;;;;;;;;;25.00;22.50;;;;;-143.90;100.00;76092.31;4977251;28;101292;-72
2024/02/20 08:48:45;;;;;;;;;29.25;22.50;;;;;-143.90;100.00;76084.03;4964090;28;101974;-72
2024/02/20 08:51:15;;;;;;;;;28.75;26.75;;;;;-143.90;100.00;76100.59;4960357;28;105182;-72
2024/02/20 08:53:43;;;;;;;;;21.00;19.25;;;;;-143.90;100.00;76102.66;4962437;28;101776;-72
2024/02/20 08:56:09;;;;;;;;;19.00;16.50;;;;;-143.90;100.00;76100.59;4964947;28;101891;-72
2024/02/20 08:58:36;;;;;;;;;16.00;12.75;;;;;-143.90;100.00;76098.53;4965551;28;101729;-72
2024/02/20 09:01:03;;;;;;;;;28.75;23.00;;;;;-143.90;100.00;76110.94;4956381;28;103386;-72
2024/02/20 09:03:30;;;;;;;;;18.50;17.25;;;;;-143.90;100.00;76115.06;4964429;28;101589;-72
2024/02/20 09:05:57;;;;;;;;;23.00;21.75;;;;;-143.90;100.00;76110.94;4962935;28;102296;-73
2024/02/20 09:08:24;;;;;;;;;22.25;17.00;;;;;-143.90;100.00;76094.38;4963998;28;101961;-71
2024/02/20 09:10:50;;;;;;;;;25.25;20.25;;;;;-143.90;100.00;76092.31;4957569;28;108196;-71
2024/02/20 09:13:17;;;;;;;;;30.75;25.50;;;;;-143.90;100.00;76081.97;4961967;28;101957;-72
2024/02/20 09:15:45;;;;;;;;;1.75;1.00;;;;;-143.90;100.00;76106.78;4965334;28;101769;-72
2024/02/20 09:18:12;;;;;;;;;26.75;22.25;;;;;-143.90;100.00;76104.72;4965485;28;101678;-72
2024/02/20 09:20:39;;;;;;;;;22.75;22.50;;;;;-143.90;100.00;76098.53;4959484;28;103351;-72
2024/02/20 09:23:05;;;;;;;;;19.50;19.00;;;;;-143.90;100.00;76094.38;4956131;28;101613;-72
2024/02/20 09:25:32;;;;;;;;;21.25;16.75;;;;;-143.90;100.00;76094.38;4965619;28;101696;-72
2024/02/20 09:27:59;;;;;;;;;23.50;21.00;;;;;-143.90;100.00;76092.31;4965361;28;101916;-72
2024/02/20 09:30:25;;;;;;;;;22.75;19.75;;;;;-143.90;100.00;76098.53;4964049;28;103346;-72
2024/02/20 09:32:52;;;;;;;;;22.25;18.25;;;;;-143.90;100.00;76092.31;4961074;28;101544;-71
2024/02/20 09:35:19;;;;;;;;;26.00;21.00;;;;;-143.90;100.00;76098.53;4952802;28;104871;-71
2024/02/20 09:37:45;;;;;;;;;31.00;27.25;;;;;-143.90;100.00;76110.94;4962287;28;101851;-72
2024/02/20 09:40:16;;;;;;;;;27.50;24.00;;;;;-143.90;100.00;76110.94;4963505;28;103363;-71
2024/02/20 09:42:49;;;;;;;;;25.75;22.50;;;;;-143.90;100.00;76090.25;4964700;28;101502;-72
2024/02/20 09:45:20;;;;;;;;;29.75;23.00;;;;;-143.90;100.00;76086.13;4962798;28;101359;-72
2024/02/20 09:47:48;;;;;;;;;24.00;24.00;;;;;-143.90;100.00;76086.13;4968226;28;101820;-72
2024/02/20 09:50:22;;;;;;;;;27.50;21.50;;;;;-143.90;100.00;76079.91;4969797;28;108040;-72
2024/02/20 09:52:54;;;;;;;;;28.50;24.00;;;;;-143.90;100.00;76102.66;4966719;28;101773;-72
2024/02/20 09:55:23;;;;;;;;;24.00;22.00;;;;;-143.90;100.00;76104.72;4967799;28;101574;-72
2024/02/20 09:57:51;;;;;;;;;27.50;21.25;;;;;-143.90;100.00;76115.06;4969544;28;102233;-72
2024/02/20 10:00:19;;;;;;;;;19.00;17.25;;;;;-143.90;100.00;76102.66;4966414;28;103401;-72
2024/02/20 10:02:51;;;;;;;;;22.75;19.75;;;;;-143.90;100.00;76094.38;4955962;28;101584;-72
2024/02/20 10:05:18;;;;;;;;;33.25;24.75;;;;;-143.90;100.00;76092.31;4967535;28;101465;-72
2024/02/20 10:07:45;;;;;;;;;32.00;25.50;;;;;-143.90;100.00;76081.97;4961252;28;103094;-72
2024/02/20 10:10:16;;;;;;;;;34.00;29.25;;;;;-143.90;100.00;76102.66;4965918;28;103343;-72
2024/02/20 10:12:44;;;;;;;;;29.75;25.75;;;;;-143.90;100.00;76108.84;4967857;28;101462;-72
2024/02/20 10:15:15;;;;;;;;;26.75;21.50;;;;;-143.90;100.00;76110.94;4978784;28;101705;-71
2024/02/20 10:17:42;;;;;;;;;24.50;20.75;;;;;-143.90;100.00;76098.53;4969211;28;101786;-72
2024/02/20 10:20:10;;;;;;;;;28.75;24.75;;;;;-143.90;100.00;76086.13;4966488;28;105150;-72
2024/02/20 10:22:41;;;;;;;;;24.50;24.00;;;;;-143.90;100.00;76092.31;4965771;28;102592;-70
2024/02/20 10:25:13;;;;;;;;;25.00;24.00;;;;;-143.90;100.00;76086.13;4962289;28;101515;-71
2024/02/20 10:27:41;;;;;;;;;26.75;23.50;;;;;-143.90;100.00;76086.13;4967904;28;101871;-70
2024/02/20 10:30:08;;;;;;;;;27.25;23.50;;;;;-143.90;100.00;76077.84;4964980;28;103467;-71
2024/02/20 10:32:36;;;;;;;;;28.50;26.00;;;;;-143.90;100.00;76086.13;4965210;28;101931;-71
2024/02/20 10:35:09;;;;;;;;;29.25;24.75;;;;;-143.90;100.00;76079.91;4960357;28;102016;-71
2024/02/20 10:37:37;;;;;;;;;31.75;28.25;;;;;-143.90;100.00;76081.97;4966851;28;101479;-71
2024/02/20 10:40:06;;;;;;;;;30.75;26.50;;;;;-143.90;100.00;76073.72;4963261;28;103457;-72
2024/02/20 10:42:54;;;;;;;;;36.75;34.25;;;;;-143.90;100.00;76073.72;4960747;28;101921;-71
2024/02/20 10:45:22;;;;;;;;;38.25;30.00;;;;;-143.90;100.00;76075.78;4963179;28;102033;-72
2024/02/20 10:47:52;;;;;;;;;33.25;28.50;;;;;-143.90;100.00;76075.78;4966844;28;102010;-73
2024/02/20 10:50:19;;;;;;;;;36.50;28.75;;;;;-143.90;100.00;76065.44;4962014;28;103304;-72
2024/02/20 10:52:47;;;;;;;;;39.25;35.75;;;;;-143.90;100.00;76081.97;4964098;28;101958;-72
2024/02/20 10:55:15;;;;;;;;;37.00;27.00;;;;;-143.90;100.00;76069.56;4961948;28;101690;-72